createdAt,value
2022-10-23T00:01:11.203Z,2.40
2022-10-23T00:03:37.939Z,2.15
2022-10-23T00:06:05.893Z,1.80
2022-10-23T00:08:32.676Z,2.28
2022-10-23T00:10:59.679Z,1.90
2022-10-23T00:13:26.392Z,2.20
2022-10-23T00:18:19.876Z,2.00
2022-10-23T00:20:46.614Z,2.05
2022-10-23T00:23:13.354Z,2.25
2022-10-23T00:25:40.096Z,2.25
2022-10-23T00:28:06.816Z,2.25
2022-10-23T00:30:33.538Z,2.17
2022-10-23T00:33:00.241Z,1.70
2022-10-23T00:35:27.001Z,2.50
2022-10-23T00:37:53.715Z,1.63
2022-10-23T00:40:20.525Z,1.30
2022-10-23T00:42:47.259Z,2.05
2022-10-23T00:45:19.426Z,1.65
2022-10-23T00:47:46.459Z,1.40
2022-10-23T00:50:13.449Z,1.42
2022-10-23T00:52:45.649Z,1.52
2022-10-23T00:55:13.119Z,1.45
2022-10-23T00:57:42.944Z,1.85
2022-10-23T01:00:14.501Z,1.60
2022-10-23T01:02:41.647Z,1.60
2022-10-23T01:05:09.207Z,2.03
2022-10-23T01:07:56.989Z,1.58
2022-10-23T01:10:30.949Z,3.05
2022-10-23T01:13:05.377Z,1.92
2022-10-23T01:15:58.578Z,1.85
2022-10-23T01:18:32.650Z,1.33
2022-10-23T01:21:10.444Z,1.52
2022-10-23T01:24:06.678Z,1.63
2022-10-23T01:26:48.530Z,2.10
2022-10-23T01:29:19.877Z,2.13
2022-10-23T01:32:11.436Z,1.90
2022-10-23T01:34:49.711Z,1.95
2022-10-23T01:37:23.455Z,1.85
2022-10-23T01:39:55.094Z,1.48
2022-10-23T01:42:40.046Z,1.50
2022-10-23T01:45:15.895Z,1.83
2022-10-23T01:47:44.353Z,1.50
2022-10-23T01:50:14.889Z,1.70
2022-10-23T01:52:42.194Z,1.80
2022-10-23T01:55:12.504Z,1.90
2022-10-23T01:57:42.349Z,2.63
2022-10-23T02:00:13.866Z,1.83
2022-10-23T02:02:44.039Z,1.65
2022-10-23T02:05:31.361Z,1.70
2022-10-23T02:08:00.418Z,1.50
2022-10-23T02:10:39.491Z,1.40
2022-10-23T02:13:17.059Z,1.90
2022-10-23T02:15:49.899Z,1.80
2022-10-23T02:18:36.189Z,1.50
2022-10-23T02:21:12.400Z,2.33
2022-10-23T02:24:22.742Z,1.45
2022-10-23T02:26:56.470Z,1.85
2022-10-23T02:29:28.140Z,1.35
2022-10-23T02:31:55.287Z,1.33
2022-10-23T02:34:22.516Z,2.13
2022-10-23T02:36:49.569Z,2.10
2022-10-23T02:39:16.413Z,1.63
2022-10-23T02:42:10.967Z,2.38
2022-10-23T02:44:55.906Z,1.80
2022-10-23T02:47:46.207Z,1.80
2022-10-23T02:53:18.752Z,2.28
2022-10-23T02:56:10.674Z,2.33
2022-10-23T02:58:48.310Z,1.88
2022-10-23T03:01:22.554Z,1.80
2022-10-23T03:22:52.263Z,1.77
2022-10-23T03:28:03.835Z,1.80
2022-10-23T03:30:30.599Z,2.47
2022-10-23T03:32:58.586Z,2.15
2022-10-23T03:35:25.404Z,1.60
2022-10-23T03:37:53.523Z,1.70
2022-10-23T03:40:21.232Z,1.70
2022-10-23T03:42:48.684Z,1.70
2022-10-23T03:45:16.506Z,2.05
2022-10-23T03:47:43.591Z,1.60
2022-10-23T03:50:11.376Z,2.10
2022-10-23T03:52:38.221Z,1.40
2022-10-23T03:55:05.520Z,1.20
2022-10-23T03:57:32.841Z,1.70
2022-10-23T03:59:59.674Z,2.00
2022-10-23T04:02:26.679Z,1.67
2022-10-23T04:04:54.372Z,1.42
2022-10-23T04:07:21.217Z,2.30
2022-10-23T04:09:47.975Z,1.85
2022-10-23T04:12:14.844Z,2.67
2022-10-23T04:14:41.899Z,2.15
2022-10-23T04:17:08.843Z,2.55
2022-10-23T04:19:35.848Z,2.92
2022-10-23T04:22:02.729Z,2.28
2022-10-23T04:24:31.537Z,2.97
2022-10-23T04:27:03.097Z,2.47
2022-10-23T04:33:22.656Z,2.20
2022-10-23T04:35:55.881Z,2.20
2022-10-23T04:40:52.568Z,3.10
2022-10-23T04:46:55.210Z,3.70
2022-10-23T04:49:22.350Z,3.33
2022-10-23T04:51:49.314Z,2.25
2022-10-23T04:54:17.466Z,3.20
2022-10-23T04:56:44.980Z,2.75
2022-10-23T04:59:11.988Z,2.53
2022-10-23T05:01:39.597Z,3.88
2022-10-23T05:04:06.609Z,3.50
2022-10-23T05:06:36.026Z,3.78
2022-10-23T05:09:03.878Z,4.53
2022-10-23T05:11:30.706Z,3.53
2022-10-23T05:13:57.475Z,3.17
2022-10-23T05:16:43.255Z,2.83
2022-10-23T05:19:13.607Z,2.60
2022-10-23T05:21:53.065Z,2.67
2022-10-23T05:27:56.364Z,2.08
2022-10-23T05:36:47.729Z,2.88
2022-10-23T05:39:17.037Z,2.72
2022-10-23T05:41:43.819Z,2.58
2022-10-23T05:44:10.684Z,2.60
2022-10-23T05:46:42.288Z,2.70
2022-10-23T05:49:09.533Z,2.55
2022-10-23T05:51:37.602Z,4.45
2022-10-23T05:54:06.885Z,2.42
2022-10-23T05:56:39.894Z,3.30
2022-10-23T05:59:07.896Z,2.67
2022-10-23T06:01:34.905Z,2.55
2022-10-23T06:04:01.944Z,2.25
2022-10-23T06:06:28.674Z,2.45
2022-10-23T06:08:55.530Z,2.97
2022-10-23T06:11:23.262Z,3.90
2022-10-23T06:13:49.998Z,3.45
2022-10-23T06:16:27.213Z,2.67
2022-10-23T06:18:54.508Z,3.33
2022-10-23T06:21:21.724Z,3.00
2022-10-23T06:23:48.752Z,3.65
2022-10-23T06:26:18.027Z,2.90
2022-10-23T06:28:45.353Z,3.05
2022-10-23T06:31:14.474Z,2.80
2022-10-23T06:33:41.876Z,2.28
2022-10-23T06:36:10.740Z,3.05
2022-10-23T06:38:40.568Z,3.58
2022-10-23T06:41:12.995Z,2.97
2022-10-23T06:43:39.788Z,3.00
2022-10-23T06:46:06.872Z,2.47
2022-10-23T06:48:33.773Z,2.08
2022-10-23T06:51:06.626Z,2.40
2022-10-23T06:53:33.680Z,2.10
2022-10-23T06:56:01.929Z,2.35
2022-10-23T06:58:29.064Z,2.40
2022-10-23T07:00:56.299Z,2.17
2022-10-23T07:03:23.310Z,1.80
2022-10-23T07:05:50.006Z,2.83
2022-10-23T07:08:16.761Z,2.42
2022-10-23T07:10:44.129Z,2.40
2022-10-23T07:13:15.812Z,3.67
2022-10-23T07:15:44.777Z,2.80
2022-10-23T07:18:17.909Z,2.40
2022-10-23T07:20:44.915Z,2.80
2022-10-23T10:42:47.530Z,3.25
2022-10-23T10:51:47.465Z,3.20
2022-10-23T11:00:35.153Z,2.38
2022-10-23T11:21:26.198Z,4.60
2022-10-23T12:24:59.683Z,7.30
2022-10-23T12:36:17.806Z,9.18
2022-10-23T13:08:48.071Z,7.20
2022-10-23T13:34:01.637Z,10.95
2022-10-23T18:08:42.820Z,10.55
2022-10-23T18:58:07.628Z,9.75
2022-10-23T19:00:34.405Z,9.45
2022-10-23T19:03:01.149Z,9.90
2022-10-23T19:05:30.576Z,6.85
2022-10-23T19:07:57.340Z,6.65
2022-10-23T19:10:28.172Z,6.03
2022-10-23T19:12:55.040Z,7.97
2022-10-23T19:15:22.040Z,6.93
2022-10-23T19:17:54.915Z,8.20
2022-10-23T19:20:22.582Z,7.95
2022-10-23T19:22:54.540Z,5.18
2022-10-23T19:25:37.867Z,6.88
2022-10-23T19:28:05.208Z,5.45
2022-10-23T19:30:33.240Z,5.50
2022-10-23T19:33:07.596Z,6.57
2022-10-23T19:35:36.622Z,8.55
2022-10-23T19:38:03.348Z,7.22
2022-10-23T19:40:34.192Z,5.28
2022-10-23T19:43:03.465Z,6.18
2022-10-23T19:47:56.784Z,6.55
2022-10-23T19:50:26.173Z,6.43
2022-10-23T19:52:55.952Z,5.50
2022-10-23T19:55:22.693Z,5.25
2022-10-23T19:57:51.647Z,4.65
2022-10-23T20:00:18.909Z,4.32
2022-10-23T20:02:45.692Z,5.43
2022-10-23T20:05:13.537Z,4.80
2022-10-23T20:07:40.263Z,3.78
2022-10-23T20:10:08.432Z,4.68
2022-10-23T20:12:35.160Z,3.72
2022-10-23T20:15:01.951Z,4.70
2022-10-23T20:17:28.682Z,4.93
2022-10-23T20:19:55.647Z,4.15
2022-10-23T20:22:24.295Z,4.13
2022-10-23T20:24:51.230Z,5.18
2022-10-23T20:27:18.825Z,7.93
2022-10-23T20:29:49.257Z,5.35
2022-10-23T20:32:16.909Z,5.50
2022-10-23T20:34:43.650Z,5.72
2022-10-23T20:40:05.716Z,7.53
2022-10-23T20:42:32.658Z,5.72
2022-10-23T20:44:59.443Z,4.57
2022-10-23T20:47:26.202Z,6.35
2022-10-23T20:49:52.884Z,4.85
2022-10-23T20:52:22.149Z,4.88
2022-10-23T20:54:49.014Z,4.00
2022-10-23T20:57:19.146Z,4.35
2022-10-23T20:59:48.029Z,5.90
2022-10-23T21:02:14.897Z,5.70
2022-10-23T21:04:41.719Z,5.85
2022-10-23T21:07:10.321Z,5.75
2022-10-23T21:09:38.610Z,5.68
2022-10-23T21:12:06.816Z,5.15
2022-10-23T21:14:34.471Z,6.18
2022-10-23T21:17:01.346Z,5.82
2022-10-23T21:19:28.247Z,5.82
2022-10-23T21:21:55.789Z,5.75
2022-10-23T21:24:22.653Z,6.03
2022-10-23T21:26:49.600Z,4.85
2022-10-23T21:29:19.003Z,5.45
2022-10-23T21:31:52.174Z,3.97
2022-10-23T21:34:19.090Z,5.35
2022-10-23T21:37:11.442Z,4.75
2022-10-23T21:39:34.529Z,6.03
2022-10-23T21:42:01.543Z,5.47
2022-10-23T21:44:28.360Z,5.88
2022-10-23T21:46:57.909Z,6.15
2022-10-23T21:49:25.008Z,5.63
2022-10-23T21:51:55.230Z,5.35
2022-10-23T21:54:22.828Z,5.72
2022-10-23T21:56:53.957Z,6.43
2022-10-23T21:59:24.810Z,4.93
2022-10-23T22:01:53.307Z,5.53
2022-10-23T22:04:22.988Z,5.00
2022-10-23T22:12:20.193Z,4.63
2022-10-23T22:14:51.598Z,4.43
2022-10-23T22:17:23.199Z,3.65
2022-10-23T22:19:52.277Z,4.60
2022-10-23T22:22:18.951Z,3.63
2022-10-23T22:24:45.669Z,2.88
2022-10-23T22:27:12.384Z,2.80
2022-10-23T22:29:39.091Z,3.42
2022-10-23T22:32:05.861Z,3.10
2022-10-23T22:34:52.743Z,3.72
2022-10-23T22:37:20.033Z,3.30
2022-10-23T22:39:50.864Z,3.35
2022-10-23T22:42:20.135Z,3.63
2022-10-23T22:44:46.897Z,3.55
2022-10-23T22:47:13.741Z,4.30
2022-10-23T22:49:40.499Z,4.22
2022-10-23T22:52:07.207Z,3.92
2022-10-23T22:54:34.136Z,3.65
2022-10-23T22:57:00.945Z,3.05
2022-10-23T22:59:27.715Z,2.50
2022-10-23T23:01:54.858Z,2.42
2022-10-23T23:04:38.344Z,2.80
2022-10-23T23:07:11.339Z,2.35
2022-10-23T23:09:42.891Z,2.47
2022-10-23T23:12:11.553Z,2.70
2022-10-23T23:14:39.047Z,2.50
2022-10-23T23:17:07.082Z,3.65
2022-10-23T23:19:34.409Z,2.83
2022-10-23T23:22:01.426Z,3.05
2022-10-23T23:24:28.278Z,3.15
2022-10-23T23:26:54.976Z,3.00
2022-10-23T23:29:22.404Z,3.60
2022-10-23T23:31:49.132Z,3.80
2022-10-23T23:34:15.874Z,2.88
2022-10-23T23:36:42.719Z,3.90
2022-10-23T23:39:10.342Z,4.20
2022-10-23T23:41:37.840Z,4.18
2022-10-23T23:44:04.784Z,4.88
2022-10-23T23:46:31.486Z,4.15
2022-10-23T23:48:58.201Z,4.82
2022-10-23T23:51:25.856Z,4.72
2022-10-23T23:53:53.239Z,3.88
2022-10-23T23:56:20.978Z,3.53
2022-10-23T23:58:47.729Z,5.38
